Terminal Aerodrome Forecast
Issued by NWS Wakefield, VA

Home | Current Version | Previous Version | Text Only | Print | Product List | Glossary On
Versions: 1 2 3 4 5 6 7 8 9 10 11 12 13 14 15 16 17
000
FTUS41 KAKQ 212300
TAFRIC
TAF
KRIC 212339Z 2200/2224 31015G25KT P6SM SCT040 OVC100
     FM220030 29010G18KT P6SM BKN100
     FM220130 30008KT P6SM SCT050 BKN100
     FM220900 33010KT 4SM -RA BR BKN025 OVC050
     FM221700 33013G18KT P6SM OVC040=

USA.gov is the U.S. government's official web portal to all federal, state and local government web resources and services.